sensor_id;sensor_type;location;lat;lon;timestamp;P1;durP1;ratioP1;P2;durP2;ratioP2
21392;SDS011;10857;52.228;21.026;2023-03-01T06:12:19;84.07;;;36.13;;
21392;SDS011;10857;52.228;21.026;2023-03-01T06:14:46;90.43;;;36.07;;
21392;SDS011;10857;52.228;21.026;2023-03-01T06:17:14;83.63;;;35.73;;
21392;SDS011;10857;52.228;21.026;2023-03-01T06:19:41;86.67;;;35.03;;
21392;SDS011;10857;52.228;21.026;2023-03-01T06:22:08;79.77;;;34.47;;
21392;SDS011;10857;52.228;21.026;2023-03-01T06:24:36;81.90;;;33.07;;
21392;SDS011;10857;52.228;21.026;2023-03-01T06:30:23;83.83;;;33.63;;
21392;SDS011;10857;52.228;21.026;2023-03-01T06:32:51;79.93;;;32.77;;
21392;SDS011;10857;52.228;21.026;2023-03-01T06:35:19;75.00;;;31.33;;
21392;SDS011;10857;52.228;21.026;2023-03-01T06:37:47;79.50;;;34.67;;
21392;SDS011;10857;52.228;21.026;2023-03-01T06:40:15;81.00;;;33.40;;
21392;SDS011;10857;52.228;21.026;2023-03-01T06:42:42;78.33;;;33.27;;
21392;SDS011;10857;52.228;21.026;2023-03-01T06:45:10;80.93;;;33.87;;
21392;SDS011;10857;52.228;21.026;2023-03-01T06:47:38;83.27;;;33.33;;
21392;SDS011;10857;52.228;21.026;2023-03-01T06:50:05;77.53;;;33.90;;
21392;SDS011;10857;52.228;21.026;2023-03-01T06:52:33;72.57;;;32.53;;
21392;SDS011;10857;52.228;21.026;2023-03-01T06:55:00;77.90;;;33.23;;
21392;SDS011;10857;52.228;21.026;2023-03-01T06:57:28;81.53;;;35.20;;
21392;SDS011;10857;52.228;21.026;2023-03-01T06:59:55;82.00;;;34.07;;
21392;SDS011;10857;52.228;21.026;2023-03-01T07:02:22;76.30;;;33.00;;
21392;SDS011;10857;52.228;21.026;2023-03-01T07:04:50;78.23;;;33.30;;
21392;SDS011;10857;52.228;21.026;2023-03-01T07:07:18;79.03;;;34.03;;
21392;SDS011;10857;52.228;21.026;2023-03-01T07:09:46;72.60;;;30.80;;
21392;SDS011;10857;52.228;21.026;2023-03-01T07:12:15;79.90;;;33.03;;
21392;SDS011;10857;52.228;21.026;2023-03-01T07:14:43;63.83;;;27.50;;
21392;SDS011;10857;52.228;21.026;2023-03-01T07:17:11;66.10;;;29.97;;
21392;SDS011;10857;52.228;21.026;2023-03-01T07:19:38;73.83;;;31.57;;
21392;SDS011;10857;52.228;21.026;2023-03-01T07:22:05;67.47;;;29.17;;
21392;SDS011;10857;52.228;21.026;2023-03-01T07:24:34;69.23;;;29.53;;
21392;SDS011;10857;52.228;21.026;2023-03-01T07:27:01;73.53;;;31.80;;
21392;SDS011;10857;52.228;21.026;2023-03-01T07:29:28;73.60;;;31.83;;
21392;SDS011;10857;52.228;21.026;2023-03-01T07:31:56;66.43;;;29.40;;
21392;SDS011;10857;52.228;21.026;2023-03-01T07:34:24;71.07;;;31.93;;
21392;SDS011;10857;52.228;21.026;2023-03-01T07:36:52;69.67;;;31.97;;
21392;SDS011;10857;52.228;21.026;2023-03-01T07:39:19;62.57;;;28.40;;
21392;SDS011;10857;52.228;21.026;2023-03-01T07:41:46;61.03;;;28.53;;
21392;SDS011;10857;52.228;21.026;2023-03-01T07:44:16;69.25;;;29.92;;
21392;SDS011;10857;52.228;21.026;2023-03-01T07:46:43;60.10;;;26.93;;
21392;SDS011;10857;52.228;21.026;2023-03-01T07:49:11;57.30;;;26.37;;
21392;SDS011;10857;52.228;21.026;2023-03-01T07:51:38;59.10;;;24.17;;
21392;SDS011;10857;52.228;21.026;2023-03-01T07:54:05;58.47;;;26.27;;
21392;SDS011;10857;52.228;21.026;2023-03-01T07:56:33;55.83;;;26.00;;
21392;SDS011;10857;52.228;21.026;2023-03-01T07:59:00;58.70;;;25.13;;
21392;SDS011;10857;52.228;21.026;2023-03-01T08:01:28;54.67;;;26.37;;
21392;SDS011;10857;52.228;21.026;2023-03-01T08:03:55;52.90;;;24.80;;
21392;SDS011;10857;52.228;21.026;2023-03-01T08:06:22;52.23;;;23.97;;
21392;SDS011;10857;52.228;21.026;2023-03-01T08:08:50;50.70;;;23.37;;
21392;SDS011;10857;52.228;21.026;2023-03-01T08:11:17;54.43;;;26.07;;
21392;SDS011;10857;52.228;21.026;2023-03-01T08:13:46;53.67;;;26.60;;
21392;SDS011;10857;52.228;21.026;2023-03-01T08:16:17;59.37;;;25.77;;
21392;SDS011;10857;52.228;21.026;2023-03-01T08:18:44;56.57;;;25.20;;
21392;SDS011;10857;52.228;21.026;2023-03-01T08:21:13;61.47;;;26.07;;
21392;SDS011;10857;52.228;21.026;2023-03-01T08:23:41;58.77;;;27.07;;
21392;SDS011;10857;52.228;21.026;2023-03-01T08:26:11;55.47;;;26.70;;
21392;SDS011;10857;52.228;21.026;2023-03-01T08:28:39;56.23;;;25.07;;
21392;SDS011;10857;52.228;21.026;2023-03-01T08:31:14;54.67;;;26.23;;
21392;SDS011;10857;52.228;21.026;2023-03-01T08:33:43;61.90;;;26.20;;
21392;SDS011;10857;52.228;21.026;2023-03-01T08:36:10;53.70;;;25.37;;
21392;SDS011;10857;52.228;21.026;2023-03-01T08:38:37;57.10;;;26.17;;
21392;SDS011;10857;52.228;21.026;2023-03-01T08:41:05;55.87;;;26.83;;
21392;SDS011;10857;52.228;21.026;2023-03-01T08:43:32;56.77;;;26.13;;
21392;SDS011;10857;52.228;21.026;2023-03-01T08:45:59;55.50;;;25.60;;
21392;SDS011;10857;52.228;21.026;2023-03-01T08:48:27;54.93;;;26.13;;
21392;SDS011;10857;52.228;21.026;2023-03-01T08:50:55;50.70;;;24.20;;
21392;SDS011;10857;52.228;21.026;2023-03-01T08:53:22;54.57;;;25.47;;
21392;SDS011;10857;52.228;21.026;2023-03-01T08:55:50;51.10;;;25.37;;
21392;SDS011;10857;52.228;21.026;2023-03-01T08:58:17;56.20;;;26.07;;
21392;SDS011;10857;52.228;21.026;2023-03-01T09:00:44;55.53;;;26.43;;
21392;SDS011;10857;52.228;21.026;2023-03-01T09:03:12;55.77;;;25.47;;
21392;SDS011;10857;52.228;21.026;2023-03-01T09:05:39;50.43;;;24.23;;
21392;SDS011;10857;52.228;21.026;2023-03-01T09:08:07;48.17;;;22.67;;
21392;SDS011;10857;52.228;21.026;2023-03-01T09:10:37;45.97;;;21.90;;
21392;SDS011;10857;52.228;21.026;2023-03-01T09:13:04;43.53;;;22.40;;
21392;SDS011;10857;52.228;21.026;2023-03-01T09:15:31;43.77;;;20.60;;
21392;SDS011;10857;52.228;21.026;2023-03-01T09:17:59;49.17;;;22.87;;
21392;SDS011;10857;52.228;21.026;2023-03-01T09:20:27;41.93;;;20.87;;
21392;SDS011;10857;52.228;21.026;2023-03-01T09:22:54;41.13;;;19.97;;
21392;SDS011;10857;52.228;21.026;2023-03-01T09:25:22;46.07;;;22.20;;
21392;SDS011;10857;52.228;21.026;2023-03-01T09:27:53;54.87;;;23.50;;
21392;SDS011;10857;52.228;21.026;2023-03-01T09:30:21;39.80;;;19.83;;
21392;SDS011;10857;52.228;21.026;2023-03-01T09:32:48;41.87;;;21.43;;
21392;SDS011;10857;52.228;21.026;2023-03-01T09:35:15;51.17;;;24.43;;
21392;SDS011;10857;52.228;21.026;2023-03-01T09:37:43;56.23;;;25.67;;
21392;SDS011;10857;52.228;21.026;2023-03-01T09:40:17;55.90;;;26.23;;
21392;SDS011;10857;52.228;21.026;2023-03-01T09:42:46;56.30;;;25.67;;
21392;SDS011;10857;52.228;21.026;2023-03-01T09:45:23;57.53;;;26.23;;
21392;SDS011;10857;52.228;21.026;2023-03-01T09:47:52;51.43;;;25.90;;
21392;SDS011;10857;52.228;21.026;2023-03-01T09:50:20;54.17;;;25.47;;
21392;SDS011;10857;52.228;21.026;2023-03-01T09:53:02;53.73;;;26.53;;
21392;SDS011;10857;52.228;21.026;2023-03-01T09:55:34;52.87;;;26.50;;
21392;SDS011;10857;52.228;21.026;2023-03-01T10:00:42;54.13;;;25.93;;
21392;SDS011;10857;52.228;21.026;2023-03-01T10:03:12;50.40;;;24.50;;
21392;SDS011;10857;52.228;21.026;2023-03-01T10:11:03;49.87;;;24.13;;
21392;SDS011;10857;52.228;21.026;2023-03-01T10:13:42;48.87;;;22.07;;
21392;SDS011;10857;52.228;21.026;2023-03-01T10:16:13;47.10;;;23.60;;
21392;SDS011;10857;52.228;21.026;2023-03-01T10:18:42;44.80;;;21.47;;
21392;SDS011;10857;52.228;21.026;2023-03-01T10:21:14;130.63;;;24.37;;
21392;SDS011;10857;52.228;21.026;2023-03-01T10:23:42;46.40;;;21.43;;
21392;SDS011;10857;52.228;21.026;2023-03-01T10:28:44;48.40;;;21.60;;
21392;SDS011;10857;52.228;21.026;2023-03-01T10:31:16;44.83;;;22.60;;
21392;SDS011;10857;52.228;21.026;2023-03-01T10:33:46;45.27;;;22.37;;
21392;SDS011;10857;52.228;21.026;2023-03-01T10:36:17;41.47;;;21.17;;
21392;SDS011;10857;52.228;21.026;2023-03-01T10:38:52;37.50;;;19.37;;
21392;SDS011;10857;52.228;21.026;2023-03-01T10:41:23;43.37;;;19.00;;
21392;SDS011;10857;52.228;21.026;2023-03-01T10:44:11;42.27;;;20.33;;
21392;SDS011;10857;52.228;21.026;2023-03-01T10:46:59;42.73;;;19.50;;
21392;SDS011;10857;52.228;21.026;2023-03-01T10:49:30;38.67;;;18.60;;
21392;SDS011;10857;52.228;21.026;2023-03-01T10:51:58;36.47;;;19.30;;
21392;SDS011;10857;52.228;21.026;2023-03-01T10:54:38;40.50;;;20.37;;
21392;SDS011;10857;52.228;21.026;2023-03-01T10:57:10;43.83;;;18.80;;
21392;SDS011;10857;52.228;21.026;2023-03-01T10:59:51;35.37;;;18.67;;
21392;SDS011;10857;52.228;21.026;2023-03-01T11:02:28;35.10;;;18.93;;
21392;SDS011;10857;52.228;21.026;2023-03-01T11:07:46;37.83;;;18.17;;
21392;SDS011;10857;52.228;21.026;2023-03-01T11:10:18;38.97;;;18.80;;
21392;SDS011;10857;52.228;21.026;2023-03-01T11:12:46;33.30;;;17.83;;
21392;SDS011;10857;52.228;21.026;2023-03-01T11:15:47;35.13;;;19.40;;
21392;SDS011;10857;52.228;21.026;2023-03-01T11:18:20;34.57;;;17.83;;
21392;SDS011;10857;52.228;21.026;2023-03-01T11:20:59;31.87;;;17.13;;
21392;SDS011;10857;52.228;21.026;2023-03-01T11:23:28;40.07;;;18.07;;
21392;SDS011;10857;52.228;21.026;2023-03-01T11:26:00;35.83;;;18.17;;
21392;SDS011;10857;52.228;21.026;2023-03-01T11:28:29;35.97;;;18.30;;
21392;SDS011;10857;52.228;21.026;2023-03-01T11:38:44;37.40;;;17.10;;
21392;SDS011;10857;52.228;21.026;2023-03-01T11:43:46;35.17;;;17.57;;
21392;SDS011;10857;52.228;21.026;2023-03-01T11:57:01;33.17;;;17.23;;
21392;SDS011;10857;52.228;21.026;2023-03-01T11:59:35;29.77;;;16.73;;
21392;SDS011;10857;52.228;21.026;2023-03-01T12:08:01;31.97;;;16.83;;
21392;SDS011;10857;52.228;21.026;2023-03-01T12:10:37;29.00;;;16.77;;
21392;SDS011;10857;52.228;21.026;2023-03-01T12:15:48;32.50;;;17.07;;
21392;SDS011;10857;52.228;21.026;2023-03-01T12:28:51;32.57;;;17.07;;
21392;SDS011;10857;52.228;21.026;2023-03-01T12:36:34;29.93;;;16.70;;
21392;SDS011;10857;52.228;21.026;2023-03-01T12:41:52;25.80;;;14.80;;
21392;SDS011;10857;52.228;21.026;2023-03-01T12:50:01;28.10;;;15.63;;
21392;SDS011;10857;52.228;21.026;2023-03-01T12:52:35;30.67;;;15.70;;
21392;SDS011;10857;52.228;21.026;2023-03-01T12:55:06;28.67;;;15.13;;
21392;SDS011;10857;52.228;21.026;2023-03-01T12:57:42;28.07;;;15.57;;
21392;SDS011;10857;52.228;21.026;2023-03-01T13:05:24;27.23;;;15.53;;
21392;SDS011;10857;52.228;21.026;2023-03-01T13:13:18;33.80;;;16.50;;
21392;SDS011;10857;52.228;21.026;2023-03-01T13:15:46;31.63;;;16.80;;
21392;SDS011;10857;52.228;21.026;2023-03-01T13:31:54;23.53;;;13.97;;
21392;SDS011;10857;52.228;21.026;2023-03-01T13:33:59;31.50;;;14.70;;
21392;SDS011;10857;52.228;21.026;2023-03-01T13:44:24;28.60;;;15.83;;
21392;SDS011;10857;52.228;21.026;2023-03-01T13:46:53;30.73;;;15.97;;
21392;SDS011;10857;52.228;21.026;2023-03-01T13:49:25;26.77;;;15.27;;
21392;SDS011;10857;52.228;21.026;2023-03-01T13:52:00;25.83;;;14.40;;
21392;SDS011;10857;52.228;21.026;2023-03-01T13:54:31;22.30;;;12.50;;
21392;SDS011;10857;52.228;21.026;2023-03-01T13:57:00;20.37;;;11.87;;
21392;SDS011;10857;52.228;21.026;2023-03-01T13:59:27;24.70;;;13.47;;
21392;SDS011;10857;52.228;21.026;2023-03-01T14:01:57;22.63;;;13.57;;
21392;SDS011;10857;52.228;21.026;2023-03-01T14:04:29;19.60;;;12.30;;
21392;SDS011;10857;52.228;21.026;2023-03-01T14:07:20;24.07;;;13.53;;
21392;SDS011;10857;52.228;21.026;2023-03-01T14:09:45;23.70;;;13.50;;
21392;SDS011;10857;52.228;21.026;2023-03-01T14:12:20;25.53;;;14.00;;
21392;SDS011;10857;52.228;21.026;2023-03-01T14:15:02;24.80;;;12.87;;
21392;SDS011;10857;52.228;21.026;2023-03-01T14:17:44;26.93;;;13.77;;
21392;SDS011;10857;52.228;21.026;2023-03-01T14:20:22;28.33;;;14.83;;
21392;SDS011;10857;52.228;21.026;2023-03-01T14:22:51;29.47;;;15.17;;
21392;SDS011;10857;52.228;21.026;2023-03-01T14:27:58;23.90;;;15.20;;
21392;SDS011;10857;52.228;21.026;2023-03-01T14:30:38;27.73;;;15.30;;
21392;SDS011;10857;52.228;21.026;2023-03-01T14:33:24;24.50;;;14.27;;
21392;SDS011;10857;52.228;21.026;2023-03-01T14:35:53;23.77;;;13.63;;
21392;SDS011;10857;52.228;21.026;2023-03-01T14:38:22;26.40;;;14.03;;
21392;SDS011;10857;52.228;21.026;2023-03-01T14:40:51;29.23;;;15.57;;
21392;SDS011;10857;52.228;21.026;2023-03-01T14:43:22;25.13;;;15.80;;
21392;SDS011;10857;52.228;21.026;2023-03-01T14:45:50;25.60;;;14.20;;
21392;SDS011;10857;52.228;21.026;2023-03-01T14:48:19;25.20;;;15.13;;
21392;SDS011;10857;52.228;21.026;2023-03-01T14:50:46;26.77;;;15.23;;
21392;SDS011;10857;52.228;21.026;2023-03-01T14:53:18;26.23;;;14.33;;
21392;SDS011;10857;52.228;21.026;2023-03-01T14:55:48;24.27;;;15.17;;
21392;SDS011;10857;52.228;21.026;2023-03-01T14:58:18;25.90;;;15.00;;
21392;SDS011;10857;52.228;21.026;2023-03-01T15:00:55;24.17;;;14.97;;
21392;SDS011;10857;52.228;21.026;2023-03-01T15:03:24;27.90;;;15.27;;
21392;SDS011;10857;52.228;21.026;2023-03-01T15:05:52;29.10;;;16.17;;
21392;SDS011;10857;52.228;21.026;2023-03-01T15:08:21;29.07;;;16.10;;
21392;SDS011;10857;52.228;21.026;2023-03-01T15:13:28;33.07;;;18.10;;
21392;SDS011;10857;52.228;21.026;2023-03-01T15:16:03;30.80;;;16.50;;
21392;SDS011;10857;52.228;21.026;2023-03-01T15:18:32;28.87;;;16.27;;
21392;SDS011;10857;52.228;21.026;2023-03-01T15:21:06;27.63;;;15.90;;
21392;SDS011;10857;52.228;21.026;2023-03-01T15:23:34;30.97;;;16.97;;
21392;SDS011;10857;52.228;21.026;2023-03-01T15:26:03;26.87;;;16.37;;
21392;SDS011;10857;52.228;21.026;2023-03-01T15:28:42;27.60;;;16.17;;
21392;SDS011;10857;52.228;21.026;2023-03-01T15:31:23;29.93;;;17.43;;
21392;SDS011;10857;52.228;21.026;2023-03-01T15:33:51;28.77;;;17.97;;
21392;SDS011;10857;52.228;21.026;2023-03-01T15:39:04;31.43;;;18.37;;
21392;SDS011;10857;52.228;21.026;2023-03-01T15:41:37;31.50;;;17.93;;
21392;SDS011;10857;52.228;21.026;2023-03-01T15:44:17;31.60;;;18.77;;
21392;SDS011;10857;52.228;21.026;2023-03-01T15:46:46;35.10;;;19.03;;
21392;SDS011;10857;52.228;21.026;2023-03-01T15:51:47;37.27;;;18.70;;
21392;SDS011;10857;52.228;21.026;2023-03-01T15:54:18;37.03;;;18.50;;
21392;SDS011;10857;52.228;21.026;2023-03-01T15:56:46;37.83;;;17.97;;
21392;SDS011;10857;52.228;21.026;2023-03-01T15:59:13;37.73;;;18.53;;
21392;SDS011;10857;52.228;21.026;2023-03-01T16:01:41;39.83;;;18.10;;
21392;SDS011;10857;52.228;21.026;2023-03-01T16:04:12;33.30;;;17.53;;
21392;SDS011;10857;52.228;21.026;2023-03-01T16:06:46;38.83;;;18.40;;
21392;SDS011;10857;52.228;21.026;2023-03-01T16:09:21;34.77;;;17.60;;
21392;SDS011;10857;52.228;21.026;2023-03-01T16:11:49;30.83;;;16.90;;
21392;SDS011;10857;52.228;21.026;2023-03-01T16:14:17;33.93;;;17.30;;
21392;SDS011;10857;52.228;21.026;2023-03-01T16:16:45;33.40;;;16.83;;
21392;SDS011;10857;52.228;21.026;2023-03-01T16:19:14;36.60;;;18.03;;
21392;SDS011;10857;52.228;21.026;2023-03-01T16:21:42;37.37;;;17.17;;
21392;SDS011;10857;52.228;21.026;2023-03-01T16:24:10;35.77;;;19.80;;
21392;SDS011;10857;52.228;21.026;2023-03-01T16:26:37;39.57;;;19.80;;
21392;SDS011;10857;52.228;21.026;2023-03-01T16:29:04;35.87;;;18.57;;
21392;SDS011;10857;52.228;21.026;2023-03-01T16:31:32;39.20;;;18.77;;
21392;SDS011;10857;52.228;21.026;2023-03-01T16:34:00;41.43;;;18.90;;
21392;SDS011;10857;52.228;21.026;2023-03-01T16:36:27;33.40;;;17.80;;
21392;SDS011;10857;52.228;21.026;2023-03-01T16:38:55;36.03;;;18.37;;
21392;SDS011;10857;52.228;21.026;2023-03-01T16:41:24;35.67;;;18.70;;
21392;SDS011;10857;52.228;21.026;2023-03-01T16:43:52;41.60;;;18.83;;
21392;SDS011;10857;52.228;21.026;2023-03-01T16:46:20;37.97;;;18.53;;
21392;SDS011;10857;52.228;21.026;2023-03-01T16:48:49;39.77;;;18.73;;
21392;SDS011;10857;52.228;21.026;2023-03-01T16:51:16;34.90;;;17.90;;
21392;SDS011;10857;52.228;21.026;2023-03-01T16:53:44;37.73;;;18.17;;
21392;SDS011;10857;52.228;21.026;2023-03-01T16:56:13;35.33;;;17.73;;
21392;SDS011;10857;52.228;21.026;2023-03-01T16:58:40;41.93;;;18.43;;
21392;SDS011;10857;52.228;21.026;2023-03-01T17:01:12;38.37;;;18.40;;
21392;SDS011;10857;52.228;21.026;2023-03-01T17:03:40;33.10;;;17.00;;
21392;SDS011;10857;52.228;21.026;2023-03-01T17:06:09;41.97;;;17.23;;
21392;SDS011;10857;52.228;21.026;2023-03-01T17:08:37;33.07;;;16.70;;
21392;SDS011;10857;52.228;21.026;2023-03-01T17:11:05;34.67;;;17.63;;
21392;SDS011;10857;52.228;21.026;2023-03-01T17:13:33;34.97;;;17.03;;
21392;SDS011;10857;52.228;21.026;2023-03-01T17:16:08;32.60;;;17.07;;
21392;SDS011;10857;52.228;21.026;2023-03-01T17:18:36;33.57;;;17.50;;
21392;SDS011;10857;52.228;21.026;2023-03-01T17:21:04;33.07;;;16.17;;
21392;SDS011;10857;52.228;21.026;2023-03-01T17:23:32;36.63;;;17.40;;
21392;SDS011;10857;52.228;21.026;2023-03-01T17:26:00;35.57;;;17.47;;
21392;SDS011;10857;52.228;21.026;2023-03-01T17:28:28;34.33;;;16.70;;
21392;SDS011;10857;52.228;21.026;2023-03-01T17:30:56;31.93;;;16.50;;
21392;SDS011;10857;52.228;21.026;2023-03-01T17:33:23;37.40;;;17.13;;
21392;SDS011;10857;52.228;21.026;2023-03-01T17:35:51;32.63;;;16.40;;
21392;SDS011;10857;52.228;21.026;2023-03-01T17:38:18;31.13;;;16.97;;
21392;SDS011;10857;52.228;21.026;2023-03-01T17:40:45;35.87;;;16.63;;
21392;SDS011;10857;52.228;21.026;2023-03-01T17:43:13;34.87;;;16.70;;
21392;SDS011;10857;52.228;21.026;2023-03-01T17:45:41;40.53;;;17.93;;
21392;SDS011;10857;52.228;21.026;2023-03-01T17:48:13;35.80;;;17.73;;
21392;SDS011;10857;52.228;21.026;2023-03-01T17:50:41;35.37;;;17.53;;
21392;SDS011;10857;52.228;21.026;2023-03-01T17:53:09;38.33;;;18.17;;
21392;SDS011;10857;52.228;21.026;2023-03-01T17:55:37;42.77;;;20.23;;
21392;SDS011;10857;52.228;21.026;2023-03-01T17:58:06;35.67;;;17.47;;
21392;SDS011;10857;52.228;21.026;2023-03-01T18:00:33;36.78;;;19.77;;
21392;SDS011;10857;52.228;21.026;2023-03-01T18:03:01;36.93;;;19.50;;
21392;SDS011;10857;52.228;21.026;2023-03-01T18:05:32;48.57;;;22.27;;
21392;SDS011;10857;52.228;21.026;2023-03-01T18:07:59;38.67;;;21.98;;
21392;SDS011;10857;52.228;21.026;2023-03-01T18:10:27;40.78;;;20.55;;
21392;SDS011;10857;52.228;21.026;2023-03-01T18:12:54;40.45;;;21.67;;
21392;SDS011;10857;52.228;21.026;2023-03-01T18:15:22;40.90;;;19.83;;
21392;SDS011;10857;52.228;21.026;2023-03-01T18:17:50;38.87;;;19.20;;
21392;SDS011;10857;52.228;21.026;2023-03-01T18:20:17;41.53;;;19.57;;
21392;SDS011;10857;52.228;21.026;2023-03-01T18:22:44;41.05;;;22.52;;
21392;SDS011;10857;52.228;21.026;2023-03-01T18:25:12;39.50;;;19.83;;
21392;SDS011;10857;52.228;21.026;2023-03-01T18:27:39;40.27;;;20.03;;
21392;SDS011;10857;52.228;21.026;2023-03-01T18:30:07;43.80;;;20.10;;
21392;SDS011;10857;52.228;21.026;2023-03-01T18:32:34;44.30;;;20.13;;
21392;SDS011;10857;52.228;21.026;2023-03-01T18:35:02;43.13;;;21.17;;
21392;SDS011;10857;52.228;21.026;2023-03-01T18:37:30;41.80;;;21.80;;
21392;SDS011;10857;52.228;21.026;2023-03-01T18:39:57;42.13;;;20.83;;
21392;SDS011;10857;52.228;21.026;2023-03-01T18:42:25;41.93;;;20.23;;
21392;SDS011;10857;52.228;21.026;2023-03-01T18:44:52;43.70;;;21.77;;
21392;SDS011;10857;52.228;21.026;2023-03-01T18:47:19;47.30;;;22.03;;
21392;SDS011;10857;52.228;21.026;2023-03-01T18:49:47;44.77;;;21.13;;
21392;SDS011;10857;52.228;21.026;2023-03-01T18:52:14;49.87;;;22.97;;
21392;SDS011;10857;52.228;21.026;2023-03-01T18:54:42;45.90;;;22.07;;
21392;SDS011;10857;52.228;21.026;2023-03-01T18:57:09;47.37;;;21.73;;
21392;SDS011;10857;52.228;21.026;2023-03-01T18:59:36;40.83;;;21.53;;
21392;SDS011;10857;52.228;21.026;2023-03-01T19:02:04;46.77;;;23.40;;
21392;SDS011;10857;52.228;21.026;2023-03-01T19:04:31;47.50;;;22.97;;
21392;SDS011;10857;52.228;21.026;2023-03-01T19:06:59;45.53;;;21.77;;
21392;SDS011;10857;52.228;21.026;2023-03-01T19:09:27;49.70;;;22.40;;
21392;SDS011;10857;52.228;21.026;2023-03-01T19:11:54;47.10;;;22.27;;
21392;SDS011;10857;52.228;21.026;2023-03-01T19:14:24;48.53;;;22.83;;
21392;SDS011;10857;52.228;21.026;2023-03-01T19:16:51;50.50;;;23.33;;
21392;SDS011;10857;52.228;21.026;2023-03-01T19:19:19;47.43;;;23.17;;
21392;SDS011;10857;52.228;21.026;2023-03-01T19:21:46;44.97;;;23.13;;
21392;SDS011;10857;52.228;21.026;2023-03-01T19:24:24;47.47;;;23.57;;
21392;SDS011;10857;52.228;21.026;2023-03-01T19:26:55;51.23;;;25.00;;
21392;SDS011;10857;52.228;21.026;2023-03-01T19:29:22;48.87;;;24.50;;
21392;SDS011;10857;52.228;21.026;2023-03-01T19:31:49;52.17;;;25.77;;
21392;SDS011;10857;52.228;21.026;2023-03-01T19:34:17;51.97;;;25.17;;
21392;SDS011;10857;52.228;21.026;2023-03-01T19:36:44;51.57;;;25.87;;
21392;SDS011;10857;52.228;21.026;2023-03-01T19:39:13;51.27;;;25.23;;
21392;SDS011;10857;52.228;21.026;2023-03-01T19:41:41;55.90;;;26.60;;
21392;SDS011;10857;52.228;21.026;2023-03-01T19:44:09;54.37;;;26.53;;
21392;SDS011;10857;52.228;21.026;2023-03-01T19:46:37;54.13;;;26.87;;
21392;SDS011;10857;52.228;21.026;2023-03-01T19:49:04;54.73;;;28.67;;
21392;SDS011;10857;52.228;21.026;2023-03-01T19:51:33;52.63;;;27.00;;
21392;SDS011;10857;52.228;21.026;2023-03-01T19:54:04;57.77;;;28.53;;
21392;SDS011;10857;52.228;21.026;2023-03-01T19:56:31;55.30;;;28.30;;
21392;SDS011;10857;52.228;21.026;2023-03-01T19:58:59;65.03;;;30.13;;
21392;SDS011;10857;52.228;21.026;2023-03-01T20:01:30;61.77;;;28.50;;
21392;SDS011;10857;52.228;21.026;2023-03-01T20:04:00;58.87;;;28.10;;
21392;SDS011;10857;52.228;21.026;2023-03-01T20:06:27;57.70;;;29.27;;
21392;SDS011;10857;52.228;21.026;2023-03-01T20:08:55;55.87;;;27.70;;
21392;SDS011;10857;52.228;21.026;2023-03-01T20:11:24;57.33;;;28.77;;
21392;SDS011;10857;52.228;21.026;2023-03-01T20:13:51;60.53;;;28.70;;
21392;SDS011;10857;52.228;21.026;2023-03-01T20:16:18;60.57;;;28.07;;
21392;SDS011;10857;52.228;21.026;2023-03-01T20:18:48;57.93;;;29.17;;
21392;SDS011;10857;52.228;21.026;2023-03-01T20:21:15;63.10;;;30.37;;
21392;SDS011;10857;52.228;21.026;2023-03-01T20:23:50;58.00;;;28.07;;
21392;SDS011;10857;52.228;21.026;2023-03-01T20:26:17;60.27;;;31.20;;
21392;SDS011;10857;52.228;21.026;2023-03-01T20:28:49;61.83;;;29.93;;
21392;SDS011;10857;52.228;21.026;2023-03-01T20:31:17;58.87;;;28.67;;
21392;SDS011;10857;52.228;21.026;2023-03-01T20:33:45;56.37;;;28.43;;
21392;SDS011;10857;52.228;21.026;2023-03-01T20:36:13;58.10;;;28.67;;
21392;SDS011;10857;52.228;21.026;2023-03-01T20:38:41;59.50;;;29.30;;
21392;SDS011;10857;52.228;21.026;2023-03-01T20:41:09;56.67;;;28.83;;
21392;SDS011;10857;52.228;21.026;2023-03-01T20:43:37;57.17;;;28.97;;
21392;SDS011;10857;52.228;21.026;2023-03-01T20:46:07;61.37;;;31.13;;
21392;SDS011;10857;52.228;21.026;2023-03-01T20:48:40;65.07;;;32.97;;
21392;SDS011;10857;52.228;21.026;2023-03-01T20:51:09;63.00;;;30.53;;
21392;SDS011;10857;52.228;21.026;2023-03-01T20:53:37;65.93;;;32.93;;
21392;SDS011;10857;52.228;21.026;2023-03-01T20:56:08;64.83;;;31.60;;
21392;SDS011;10857;52.228;21.026;2023-03-01T20:58:36;65.50;;;31.83;;
21392;SDS011;10857;52.228;21.026;2023-03-01T21:01:04;66.97;;;32.00;;
21392;SDS011;10857;52.228;21.026;2023-03-01T21:03:32;65.23;;;33.90;;
21392;SDS011;10857;52.228;21.026;2023-03-01T21:06:01;62.63;;;33.03;;
21392;SDS011;10857;52.228;21.026;2023-03-01T21:08:29;63.00;;;32.30;;
21392;SDS011;10857;52.228;21.026;2023-03-01T21:10:57;64.23;;;32.23;;
21392;SDS011;10857;52.228;21.026;2023-03-01T21:13:25;65.17;;;34.53;;
21392;SDS011;10857;52.228;21.026;2023-03-01T21:18:27;66.80;;;34.27;;
21392;SDS011;10857;52.228;21.026;2023-03-01T21:21:02;65.20;;;33.40;;
21392;SDS011;10857;52.228;21.026;2023-03-01T21:23:30;67.30;;;34.67;;
21392;SDS011;10857;52.228;21.026;2023-03-01T21:26:08;75.50;;;35.63;;
21392;SDS011;10857;52.228;21.026;2023-03-01T21:28:36;71.73;;;35.53;;
21392;SDS011;10857;52.228;21.026;2023-03-01T21:31:05;68.27;;;35.43;;
21392;SDS011;10857;52.228;21.026;2023-03-01T21:33:33;74.83;;;35.40;;
21392;SDS011;10857;52.228;21.026;2023-03-01T21:36:01;73.53;;;36.87;;
21392;SDS011;10857;52.228;21.026;2023-03-01T22:22:03;81.27;;;39.07;;
21392;SDS011;10857;52.228;21.026;2023-03-01T22:24:30;79.70;;;39.97;;
21392;SDS011;10857;52.228;21.026;2023-03-01T22:26:58;89.37;;;42.97;;
21392;SDS011;10857;52.228;21.026;2023-03-01T22:29:26;87.00;;;42.77;;
21392;SDS011;10857;52.228;21.026;2023-03-01T22:31:54;87.57;;;42.83;;
21392;SDS011;10857;52.228;21.026;2023-03-01T22:34:23;92.13;;;44.20;;
21392;SDS011;10857;52.228;21.026;2023-03-01T22:36:50;94.17;;;42.77;;
21392;SDS011;10857;52.228;21.026;2023-03-01T22:39:18;86.90;;;42.83;;
21392;SDS011;10857;52.228;21.026;2023-03-01T22:41:47;88.40;;;44.43;;
21392;SDS011;10857;52.228;21.026;2023-03-01T22:44:16;90.00;;;44.50;;
21392;SDS011;10857;52.228;21.026;2023-03-01T22:46:44;90.87;;;43.73;;
21392;SDS011;10857;52.228;21.026;2023-03-01T22:49:11;85.37;;;40.33;;
21392;SDS011;10857;52.228;21.026;2023-03-01T22:51:39;81.97;;;39.00;;
21392;SDS011;10857;52.228;21.026;2023-03-01T22:54:08;80.10;;;39.63;;
21392;SDS011;10857;52.228;21.026;2023-03-01T22:56:37;80.53;;;39.87;;
